Time;durP1;ratioP1;P1;durP2;ratioP2;P2;SDS_P1;SDS_P2;PMS_P1;PMS_P2;Temp;Humidity;BMP_temperature;BMP_pressure;BME280_temperature;BME280_humidity;BME280_pressure;Samples;Min_cycle;Max_cycle;Signal;HPM_P1;HPM_P2
2024/01/11 00:00:12;;;;;;;17.20;11.97;;;;;;;;;;5038068;28;20432;-70
2024/01/11 00:02:38;;;;;;;17.00;11.63;;;;;;;;;;5034258;28;20199;-68
2024/01/11 00:05:07;;;;;;;19.20;12.50;;;;;;;;;;5039637;28;20203;-71
2024/01/11 00:07:34;;;;;;;17.97;11.37;;;;;;;;;;5038781;28;20290;-70
2024/01/11 00:10:03;;;;;;;17.00;11.63;;;;;;;;;;5044532;28;20206;-70
2024/01/11 00:12:31;;;;;;;19.07;11.67;;;;;;;;;;5039124;28;20281;-65
2024/01/11 00:14:59;;;;;;;18.60;11.63;;;;;;;;;;5044048;28;20243;-66
2024/01/11 00:17:26;;;;;;;19.53;12.30;;;;;;;;;;5043230;28;20198;-65
2024/01/11 00:19:53;;;;;;;18.10;11.43;;;;;;;;;;5038590;28;20316;-64
2024/01/11 00:22:22;;;;;;;19.17;11.83;;;;;;;;;;5043677;28;20290;-64
2024/01/11 00:24:49;;;;;;;18.63;11.93;;;;;;;;;;5038375;28;20210;-65
2024/01/11 00:27:16;;;;;;;17.77;11.77;;;;;;;;;;5042062;28;20214;-64
2024/01/11 00:29:43;;;;;;;19.87;12.23;;;;;;;;;;5041471;28;20212;-64
2024/01/11 00:32:10;;;;;;;19.03;11.37;;;;;;;;;;5043438;28;20203;-66
2024/01/11 00:34:38;;;;;;;18.33;11.30;;;;;;;;;;5041452;28;20220;-64
2024/01/11 00:37:05;;;;;;;17.30;11.50;;;;;;;;;;5038151;28;20223;-64
2024/01/11 00:39:34;;;;;;;18.40;11.70;;;;;;;;;;5040267;28;20298;-65
2024/01/11 00:42:01;;;;;;;19.23;12.37;;;;;;;;;;5046631;28;20215;-65
2024/01/11 00:44:28;;;;;;;18.43;11.40;;;;;;;;;;5044068;28;20206;-65
2024/01/11 00:46:56;;;;;;;18.17;11.63;;;;;;;;;;5049215;28;20227;-65
2024/01/11 00:49:23;;;;;;;17.63;11.60;;;;;;;;;;5046591;28;20199;-64
2024/01/11 00:51:50;;;;;;;18.70;11.67;;;;;;;;;;5048619;28;20283;-65
2024/01/11 00:54:17;;;;;;;18.43;11.93;;;;;;;;;;5048687;28;20223;-65
2024/01/11 00:56:45;;;;;;;21.17;11.83;;;;;;;;;;5046788;28;20195;-64
2024/01/11 00:59:12;;;;;;;23.67;12.60;;;;;;;;;;5045680;28;20213;-64
2024/01/11 01:01:40;;;;;;;21.73;13.13;;;;;;;;;;5044481;28;20199;-65
2024/01/11 01:04:07;;;;;;;19.60;12.10;;;;;;;;;;5049427;28;20210;-64
2024/01/11 01:06:34;;;;;;;22.13;13.07;;;;;;;;;;5050759;28;20199;-64
2024/01/11 01:09:02;;;;;;;20.20;12.43;;;;;;;;;;5048172;28;20200;-66
2024/01/11 01:11:29;;;;;;;18.60;12.33;;;;;;;;;;5051545;28;20203;-64
2024/01/11 01:13:58;;;;;;;19.17;12.20;;;;;;;;;;5044286;28;20224;-64
2024/01/11 01:16:25;;;;;;;19.03;12.30;;;;;;;;;;5048620;28;20203;-64
2024/01/11 01:18:52;;;;;;;17.30;11.20;;;;;;;;;;5045586;28;20210;-66
2024/01/11 01:21:19;;;;;;;17.50;11.53;;;;;;;;;;5042143;28;20207;-64
2024/01/11 01:23:46;;;;;;;19.13;12.17;;;;;;;;;;5048445;28;20206;-64
2024/01/11 01:26:13;;;;;;;19.23;11.63;;;;;;;;;;5047082;28;20214;-64
2024/01/11 01:28:40;;;;;;;18.63;11.87;;;;;;;;;;5046870;28;20289;-64
2024/01/11 01:31:09;;;;;;;18.23;11.93;;;;;;;;;;5046847;28;20211;-64
2024/01/11 01:33:36;;;;;;;18.70;11.70;;;;;;;;;;5052741;28;20223;-64
2024/01/11 01:36:03;;;;;;;19.97;12.30;;;;;;;;;;5045027;28;20558;-64
2024/01/11 01:38:30;;;;;;;18.50;11.93;;;;;;;;;;5047406;28;20261;-65
2024/01/11 01:40:57;;;;;;;17.53;11.47;;;;;;;;;;5049144;28;20196;-65
2024/01/11 01:43:24;;;;;;;21.20;13.00;;;;;;;;;;5047831;28;20214;-65
2024/01/11 01:45:52;;;;;;;19.13;12.33;;;;;;;;;;5047785;28;20287;-64
2024/01/11 01:48:20;;;;;;;17.57;11.33;;;;;;;;;;5051382;28;20200;-64
2024/01/11 01:50:50;;;;;;;19.23;11.90;;;;;;;;;;5051325;28;20199;-64
2024/01/11 01:53:17;;;;;;;14.93;11.20;;;;;;;;;;5046402;28;20548;-64
2024/01/11 01:55:45;;;;;;;18.13;11.93;;;;;;;;;;5048513;28;20199;-64
2024/01/11 01:58:12;;;;;;;21.97;12.50;;;;;;;;;;5049348;28;20203;-64
2024/01/11 02:00:41;;;;;;;19.67;12.33;;;;;;;;;;5050381;28;20208;-64
2024/01/11 02:03:08;;;;;;;18.10;11.17;;;;;;;;;;5054835;28;20207;-65
2024/01/11 02:05:36;;;;;;;18.20;11.60;;;;;;;;;;5052319;28;20208;-64
2024/01/11 02:08:05;;;;;;;18.80;11.37;;;;;;;;;;5046396;28;20212;-64
2024/01/11 02:10:35;;;;;;;17.97;11.53;;;;;;;;;;5041856;28;20216;-64
2024/01/11 02:13:02;;;;;;;18.63;11.73;;;;;;;;;;5046070;28;20204;-64
2024/01/11 02:15:29;;;;;;;16.37;11.50;;;;;;;;;;5049110;28;20207;-64
2024/01/11 02:17:56;;;;;;;21.30;12.60;;;;;;;;;;5047052;28;20203;-64
2024/01/11 02:20:24;;;;;;;19.47;12.40;;;;;;;;;;5049983;28;20203;-64
2024/01/11 02:22:55;;;;;;;20.30;12.13;;;;;;;;;;5046911;28;20200;-64
2024/01/11 02:25:23;;;;;;;16.87;11.27;;;;;;;;;;5045820;28;20204;-64
2024/01/11 02:27:51;;;;;;;18.17;11.93;;;;;;;;;;5047312;28;20199;-65
2024/01/11 02:30:18;;;;;;;16.83;10.97;;;;;;;;;;5042997;28;20203;-64
2024/01/11 02:32:46;;;;;;;18.47;11.03;;;;;;;;;;5044988;28;20298;-64
2024/01/11 02:35:14;;;;;;;17.67;11.37;;;;;;;;;;5046286;28;20219;-64
2024/01/11 02:37:41;;;;;;;17.90;12.03;;;;;;;;;;5048004;28;20217;-64
2024/01/11 02:40:09;;;;;;;18.23;11.90;;;;;;;;;;5042984;28;20293;-64
2024/01/11 02:42:38;;;;;;;16.43;11.07;;;;;;;;;;5046778;28;20199;-64
2024/01/11 02:45:05;;;;;;;17.77;11.53;;;;;;;;;;5049306;28;20199;-65
2024/01/11 02:47:32;;;;;;;18.73;11.70;;;;;;;;;;5044296;28;20436;-64
2024/01/11 02:50:00;;;;;;;17.47;11.80;;;;;;;;;;5049261;28;20204;-65
2024/01/11 02:52:27;;;;;;;17.57;11.20;;;;;;;;;;5044598;28;20195;-65
2024/01/11 02:54:54;;;;;;;18.80;11.90;;;;;;;;;;5045256;28;20207;-66
2024/01/11 02:57:21;;;;;;;19.17;11.30;;;;;;;;;;5044605;28;20231;-65
2024/01/11 02:59:51;;;;;;;18.67;12.03;;;;;;;;;;5049491;28;20204;-65
2024/01/11 03:02:18;;;;;;;16.30;11.37;;;;;;;;;;5045344;28;20221;-66
2024/01/11 03:04:45;;;;;;;18.93;12.10;;;;;;;;;;5047285;28;20203;-65
2024/01/11 03:07:12;;;;;;;19.70;12.33;;;;;;;;;;5042424;28;20208;-65
2024/01/11 03:09:39;;;;;;;18.97;12.67;;;;;;;;;;5045111;28;20207;-65
2024/01/11 03:12:07;;;;;;;19.43;12.17;;;;;;;;;;5046258;28;20203;-64
2024/01/11 03:14:34;;;;;;;19.73;12.43;;;;;;;;;;5044534;28;20216;-64
2024/01/11 03:17:02;;;;;;;20.90;13.13;;;;;;;;;;5044659;28;20208;-65
2024/01/11 03:19:30;;;;;;;20.73;12.47;;;;;;;;;;5046416;28;20211;-65
2024/01/11 03:21:57;;;;;;;21.07;13.33;;;;;;;;;;5042575;28;20203;-64
2024/01/11 03:24:24;;;;;;;20.40;13.13;;;;;;;;;;5044311;28;20195;-65
2024/01/11 03:26:51;;;;;;;20.13;12.90;;;;;;;;;;5046889;28;20211;-65
2024/01/11 03:29:18;;;;;;;18.40;12.43;;;;;;;;;;5045124;28;20245;-65
2024/01/11 03:31:45;;;;;;;21.60;13.00;;;;;;;;;;5047555;28;20210;-66
2024/01/11 03:34:14;;;;;;;19.70;13.10;;;;;;;;;;5045497;28;20245;-65
2024/01/11 03:36:41;;;;;;;20.60;12.77;;;;;;;;;;5046258;28;20208;-65
2024/01/11 03:39:08;;;;;;;20.33;12.30;;;;;;;;;;5045043;28;20265;-65
2024/01/11 03:41:35;;;;;;;21.80;12.53;;;;;;;;;;5045043;28;20298;-66
2024/01/11 03:44:02;;;;;;;20.43;12.73;;;;;;;;;;5046597;28;20203;-65
2024/01/11 03:46:29;;;;;;;21.60;12.77;;;;;;;;;;5043561;28;20203;-65
2024/01/11 03:48:57;;;;;;;22.80;13.70;;;;;;;;;;5042252;28;20200;-65
2024/01/11 03:51:25;;;;;;;17.90;12.47;;;;;;;;;;5046329;28;20206;-65
2024/01/11 03:53:52;;;;;;;19.50;12.40;;;;;;;;;;5040631;28;20234;-65
2024/01/11 03:56:19;;;;;;;20.53;12.57;;;;;;;;;;5047174;28;20206;-64
2024/01/11 03:58:46;;;;;;;20.40;12.77;;;;;;;;;;5041755;28;20204;-64
2024/01/11 04:01:13;;;;;;;21.03;12.77;;;;;;;;;;5045845;28;20204;-65
2024/01/11 04:03:42;;;;;;;18.00;12.10;;;;;;;;;;5045400;28;20207;-65
2024/01/11 04:06:10;;;;;;;19.60;12.43;;;;;;;;;;5051508;28;20203;-65
2024/01/11 04:08:38;;;;;;;19.97;12.10;;;;;;;;;;5043782;28;20204;-64
2024/01/11 04:11:05;;;;;;;21.23;13.73;;;;;;;;;;5045133;28;20208;-64
2024/01/11 04:13:32;;;;;;;18.73;12.47;;;;;;;;;;5049772;28;20204;-64
2024/01/11 04:15:59;;;;;;;22.07;13.33;;;;;;;;;;5044615;28;20203;-63
2024/01/11 04:18:26;;;;;;;19.90;13.00;;;;;;;;;;5044961;28;20203;-64
2024/01/11 04:20:54;;;;;;;19.70;12.87;;;;;;;;;;5046933;28;20196;-64
2024/01/11 04:23:21;;;;;;;19.00;12.03;;;;;;;;;;5041804;28;20227;-63
2024/01/11 04:25:50;;;;;;;22.60;14.37;;;;;;;;;;5045021;28;20303;-63
2024/01/11 04:28:17;;;;;;;25.43;16.87;;;;;;;;;;5047886;28;20214;-64
2024/01/11 04:30:44;;;;;;;24.83;14.47;;;;;;;;;;5043567;28;20217;-63
2024/01/11 04:33:12;;;;;;;24.37;14.23;;;;;;;;;;5048852;28;20210;-64
2024/01/11 04:35:39;;;;;;;19.73;12.43;;;;;;;;;;5044417;28;20227;-64
2024/01/11 04:38:06;;;;;;;20.13;13.33;;;;;;;;;;5049305;28;20236;-64
2024/01/11 04:40:33;;;;;;;23.00;13.93;;;;;;;;;;5045271;28;20196;-63
2024/01/11 04:43:01;;;;;;;21.90;13.73;;;;;;;;;;5046140;28;20203;-65
2024/01/11 04:45:28;;;;;;;19.70;13.63;;;;;;;;;;5045541;28;20230;-65
2024/01/11 04:47:55;;;;;;;22.43;13.90;;;;;;;;;;5043206;28;20210;-63
2024/01/11 04:50:23;;;;;;;23.20;14.63;;;;;;;;;;5044735;28;20203;-64
2024/01/11 04:52:50;;;;;;;21.83;13.77;;;;;;;;;;5040917;28;20191;-64
2024/01/11 04:55:17;;;;;;;20.53;13.07;;;;;;;;;;5040006;28;20233;-64
2024/01/11 04:57:44;;;;;;;21.80;13.30;;;;;;;;;;5044333;28;20210;-64
2024/01/11 05:00:13;;;;;;;20.43;13.23;;;;;;;;;;5044914;28;20217;-63
2024/01/11 05:02:40;;;;;;;23.17;14.33;;;;;;;;;;5043072;28;20219;-63
2024/01/11 05:05:07;;;;;;;22.40;14.33;;;;;;;;;;5047855;28;20210;-64
2024/01/11 05:07:35;;;;;;;22.40;13.80;;;;;;;;;;5043715;28;20203;-64
2024/01/11 05:10:02;;;;;;;24.30;14.07;;;;;;;;;;5048189;28;20194;-64
2024/01/11 05:12:29;;;;;;;23.53;13.93;;;;;;;;;;5047138;28;20271;-63
2024/01/11 05:14:56;;;;;;;22.83;14.57;;;;;;;;;;5045986;28;20220;-66
2024/01/11 05:17:25;;;;;;;22.43;14.70;;;;;;;;;;5047150;28;20208;-65
2024/01/11 05:19:52;;;;;;;25.33;15.03;;;;;;;;;;5045977;28;20204;-64
2024/01/11 05:22:19;;;;;;;26.83;17.10;;;;;;;;;;5042133;28;20217;-64
2024/01/11 05:24:46;;;;;;;32.60;18.40;;;;;;;;;;5041661;28;20211;-64
2024/01/11 05:27:13;;;;;;;33.37;18.50;;;;;;;;;;5045597;28;20215;-64
2024/01/11 05:29:40;;;;;;;28.00;17.07;;;;;;;;;;5046801;28;20202;-64
2024/01/11 05:32:07;;;;;;;26.90;16.03;;;;;;;;;;5046358;28;20230;-64
2024/01/11 05:34:36;;;;;;;35.73;18.10;;;;;;;;;;5052174;28;20212;-64
2024/01/11 05:37:03;;;;;;;53.03;23.33;;;;;;;;;;5050283;28;20204;-63
2024/01/11 05:39:30;;;;;;;60.07;24.83;;;;;;;;;;5050498;28;20264;-64
2024/01/11 05:41:57;;;;;;;46.40;22.70;;;;;;;;;;5050383;28;20211;-63
2024/01/11 05:44:24;;;;;;;38.20;19.37;;;;;;;;;;5046360;28;20200;-63
2024/01/11 05:46:51;;;;;;;31.20;17.13;;;;;;;;;;5048295;28;20195;-64
2024/01/11 05:49:19;;;;;;;25.27;15.30;;;;;;;;;;5045893;28;20204;-63
2024/01/11 05:51:47;;;;;;;22.30;14.23;;;;;;;;;;5048533;28;20203;-63
2024/01/11 05:54:14;;;;;;;25.70;15.33;;;;;;;;;;5048767;28;20228;-63
2024/01/11 05:56:41;;;;;;;26.17;15.17;;;;;;;;;;5041953;28;20276;-63
2024/01/11 05:59:08;;;;;;;25.77;14.97;;;;;;;;;;5048211;28;20218;-63
2024/01/11 06:01:41;;;;;;;26.17;15.20;;;;;;;;;;5046935;28;20200;-65
2024/01/11 06:04:08;;;;;;;30.53;16.23;;;;;;;;;;5047737;28;20210;-69
2024/01/11 06:06:35;;;;;;;23.57;15.07;;;;;;;;;;5040216;28;20228;-69
2024/01/11 06:09:05;;;;;;;23.90;15.30;;;;;;;;;;5041119;28;20206;-68
2024/01/11 06:11:32;;;;;;;23.87;14.10;;;;;;;;;;5048244;28;20331;-70
2024/01/11 06:14:00;;;;;;;22.20;14.33;;;;;;;;;;5042238;28;20211;-69
2024/01/11 06:16:27;;;;;;;23.30;14.40;;;;;;;;;;5044087;28;20219;-69
2024/01/11 06:18:54;;;;;;;26.40;15.23;;;;;;;;;;5046800;28;20207;-69
2024/01/11 06:21:21;;;;;;;24.83;15.40;;;;;;;;;;5045352;28;20203;-69
2024/01/11 06:23:49;;;;;;;22.97;14.63;;;;;;;;;;5045363;28;20206;-69
2024/01/11 06:26:17;;;;;;;26.03;16.17;;;;;;;;;;5045773;28;20294;-69
2024/01/11 06:28:44;;;;;;;23.47;14.40;;;;;;;;;;5048232;28;20204;-69
2024/01/11 06:31:11;;;;;;;21.00;13.80;;;;;;;;;;5038756;28;20207;-69
2024/01/11 06:33:39;;;;;;;21.23;14.33;;;;;;;;;;5044201;28;20259;-64
2024/01/11 06:36:07;;;;;;;22.37;13.33;;;;;;;;;;5048770;28;20224;-64
2024/01/11 06:38:34;;;;;;;21.73;14.07;;;;;;;;;;5045816;28;20312;-64
2024/01/11 06:41:01;;;;;;;23.00;14.33;;;;;;;;;;5048658;28;20294;-64
2024/01/11 06:43:31;;;;;;;24.47;15.47;;;;;;;;;;5045960;28;20233;-64
2024/01/11 06:45:58;;;;;;;25.20;15.50;;;;;;;;;;5049202;28;20287;-64
2024/01/11 06:48:26;;;;;;;20.73;14.13;;;;;;;;;;5045735;28;20211;-65
2024/01/11 06:50:53;;;;;;;20.50;12.97;;;;;;;;;;5042061;28;20246;-65
2024/01/11 06:53:21;;;;;;;21.00;14.07;;;;;;;;;;5050379;28;20233;-64
2024/01/11 06:55:52;;;;;;;22.53;15.47;;;;;;;;;;5042572;28;20310;-64
2024/01/11 06:58:19;;;;;;;22.87;14.50;;;;;;;;;;5050591;28;20200;-64
2024/01/11 07:00:51;;;;;;;25.37;14.73;;;;;;;;;;5045296;28;20363;-64
2024/01/11 07:03:19;;;;;;;23.87;15.03;;;;;;;;;;5044315;28;20211;-64
2024/01/11 07:05:46;;;;;;;22.50;13.93;;;;;;;;;;5047165;28;22345;-64
2024/01/11 07:08:13;;;;;;;21.63;14.07;;;;;;;;;;5043913;28;20274;-64
2024/01/11 07:10:42;;;;;;;23.30;13.83;;;;;;;;;;5044979;28;20195;-66
2024/01/11 07:13:11;;;;;;;22.37;12.97;;;;;;;;;;5042235;28;20306;-70
2024/01/11 07:15:38;;;;;;;21.47;13.93;;;;;;;;;;5044613;28;20226;-69
2024/01/11 07:18:06;;;;;;;21.53;12.93;;;;;;;;;;5047664;28;20203;-70
2024/01/11 07:20:34;;;;;;;20.53;13.53;;;;;;;;;;5047083;28;20200;-70
2024/01/11 07:23:01;;;;;;;20.53;13.57;;;;;;;;;;5045879;28;20211;-70
2024/01/11 07:25:28;;;;;;;23.50;14.30;;;;;;;;;;5050031;28;20202;-69
2024/01/11 07:27:55;;;;;;;26.30;15.27;;;;;;;;;;5046777;28;20204;-70
2024/01/11 07:30:22;;;;;;;23.83;14.63;;;;;;;;;;5046416;28;20198;-70
2024/01/11 07:32:49;;;;;;;26.20;15.50;;;;;;;;;;5043047;28;20212;-70
2024/01/11 07:35:18;;;;;;;25.87;14.93;;;;;;;;;;5045633;28;20219;-70
2024/01/11 07:37:45;;;;;;;25.50;15.17;;;;;;;;;;5046881;28;20227;-70
2024/01/11 07:40:13;;;;;;;24.97;16.30;;;;;;;;;;5042677;28;20204;-70
2024/01/11 07:42:40;;;;;;;24.80;15.03;;;;;;;;;;5044313;28;20210;-70
2024/01/11 07:45:09;;;;;;;22.80;13.93;;;;;;;;;;5043277;28;20199;-69
2024/01/11 07:47:37;;;;;;;21.33;14.10;;;;;;;;;;5045252;28;20195;-69
2024/01/11 07:50:06;;;;;;;22.97;14.23;;;;;;;;;;5039971;28;20212;-69
2024/01/11 07:52:34;;;;;;;22.20;12.93;;;;;;;;;;5048780;28;20226;-69
2024/01/11 07:55:06;;;;;;;24.23;13.53;;;;;;;;;;5039889;28;20212;-70
2024/01/11 07:57:33;;;;;;;20.83;12.97;;;;;;;;;;5029651;28;20230;-70
2024/01/11 08:00:01;;;;;;;28.40;18.10;;;;;;;;;;5037011;28;20203;-70
2024/01/11 08:02:28;;;;;;;35.50;21.90;;;;;;;;;;5041278;28;20203;-69
2024/01/11 08:04:55;;;;;;;33.47;20.30;;;;;;;;;;5044292;28;20218;-69
2024/01/11 08:07:22;;;;;;;30.17;19.30;;;;;;;;;;5045457;28;20277;-70
2024/01/11 08:09:51;;;;;;;29.37;18.30;;;;;;;;;;5041714;28;20210;-69
2024/01/11 08:12:18;;;;;;;21.00;14.53;;;;;;;;;;5040538;28;20258;-69
2024/01/11 08:14:46;;;;;;;21.73;14.83;;;;;;;;;;5027833;28;20215;-69
2024/01/11 08:17:13;;;;;;;23.23;15.53;;;;;;;;;;5037137;28;20289;-69
2024/01/11 08:19:42;;;;;;;30.73;18.23;;;;;;;;;;5035353;28;20214;-69
2024/01/11 08:22:09;;;;;;;27.13;17.17;;;;;;;;;;5044903;28;20213;-69
2024/01/11 08:24:36;;;;;;;27.60;17.03;;;;;;;;;;5047091;28;20233;-69
2024/01/11 08:27:05;;;;;;;31.00;18.40;;;;;;;;;;5040100;28;20200;-69
2024/01/11 08:29:33;;;;;;;29.40;18.37;;;;;;;;;;5040127;28;20211;-69
2024/01/11 08:32:01;;;;;;;25.37;16.70;;;;;;;;;;5040866;28;20196;-69
2024/01/11 08:34:28;;;;;;;28.53;17.80;;;;;;;;;;5039556;28;20214;-69
2024/01/11 08:36:55;;;;;;;26.47;17.00;;;;;;;;;;5036657;28;20286;-69
2024/01/11 08:39:22;;;;;;;26.50;16.57;;;;;;;;;;5037233;28;20239;-68
2024/01/11 08:41:50;;;;;;;25.73;15.20;;;;;;;;;;5044837;28;20222;-70
2024/01/11 08:44:18;;;;;;;23.97;14.87;;;;;;;;;;5043620;28;20200;-70
2024/01/11 08:46:45;;;;;;;23.17;14.23;;;;;;;;;;5042077;28;20211;-69
2024/01/11 08:49:13;;;;;;;20.53;14.37;;;;;;;;;;5042296;28;20214;-69
2024/01/11 08:51:40;;;;;;;23.37;14.20;;;;;;;;;;5034406;28;20200;-69
2024/01/11 08:54:09;;;;;;;24.30;15.10;;;;;;;;;;5039686;28;20203;-69
2024/01/11 08:56:36;;;;;;;22.80;13.93;;;;;;;;;;5046284;28;20231;-69
2024/01/11 08:59:04;;;;;;;24.10;14.90;;;;;;;;;;5042454;28;20298;-69
2024/01/11 09:01:35;;;;;;;21.07;14.23;;;;;;;;;;5042902;28;20196;-69
2024/01/11 09:04:02;;;;;;;19.23;12.60;;;;;;;;;;5044815;28;20203;-70
2024/01/11 09:06:29;;;;;;;20.23;13.63;;;;;;;;;;5041278;28;20207;-69
2024/01/11 09:08:56;;;;;;;22.03;13.80;;;;;;;;;;5045842;28;20302;-68
2024/01/11 09:11:24;;;;;;;22.17;14.10;;;;;;;;;;5038476;28;21192;-69
2024/01/11 09:13:51;;;;;;;26.53;15.27;;;;;;;;;;5041643;28;20207;-69
2024/01/11 09:16:18;;;;;;;19.00;13.07;;;;;;;;;;5045764;28;20228;-69
2024/01/11 09:18:46;;;;;;;21.10;12.87;;;;;;;;;;5042346;28;20203;-70
2024/01/11 09:21:14;;;;;;;17.67;12.03;;;;;;;;;;5043185;28;20204;-70
2024/01/11 09:23:41;;;;;;;17.97;12.10;;;;;;;;;;5045478;28;20200;-69
2024/01/11 09:26:08;;;;;;;18.27;12.30;;;;;;;;;;5043064;28;20470;-69
2024/01/11 09:28:35;;;;;;;19.60;12.17;;;;;;;;;;5042970;28;20208;-69
2024/01/11 09:31:02;;;;;;;20.80;12.67;;;;;;;;;;5047074;28;20211;-70
2024/01/11 09:33:29;;;;;;;18.47;12.27;;;;;;;;;;5046882;28;20208;-63
2024/01/11 09:35:58;;;;;;;18.80;12.37;;;;;;;;;;5041278;28;20212;-63
2024/01/11 09:38:25;;;;;;;19.07;12.20;;;;;;;;;;5045391;28;20263;-63
2024/01/11 09:40:56;;;;;;;16.90;11.10;;;;;;;;;;5046542;28;20196;-65
2024/01/11 09:43:23;;;;;;;17.53;11.00;;;;;;;;;;5045836;28;20215;-64
2024/01/11 09:45:52;;;;;;;19.93;12.47;;;;;;;;;;5040646;28;20204;-65
2024/01/11 09:48:20;;;;;;;16.73;12.00;;;;;;;;;;5049797;28;20265;-65
2024/01/11 09:50:47;;;;;;;20.50;12.97;;;;;;;;;;5044584;28;20265;-63
2024/01/11 09:53:18;;;;;;;20.37;12.67;;;;;;;;;;5045091;28;20291;-64
2024/01/11 09:55:45;;;;;;;23.50;14.73;;;;;;;;;;5049064;28;20223;-64
2024/01/11 09:58:12;;;;;;;17.90;12.37;;;;;;;;;;5048081;28;20203;-65
2024/01/11 10:00:40;;;;;;;18.37;12.20;;;;;;;;;;5044835;28;20231;-64
2024/01/11 10:03:08;;;;;;;18.47;11.63;;;;;;;;;;5040995;28;20196;-65
2024/01/11 10:05:36;;;;;;;17.63;11.73;;;;;;;;;;5047213;28;20208;-64
2024/01/11 10:08:03;;;;;;;17.97;11.37;;;;;;;;;;5048045;28;20211;-65
2024/01/11 10:10:32;;;;;;;18.63;11.97;;;;;;;;;;5046857;28;20475;-65
2024/01/11 10:12:59;;;;;;;16.13;11.10;;;;;;;;;;5041877;28;20204;-65
2024/01/11 10:15:27;;;;;;;17.73;11.07;;;;;;;;;;5048683;28;20215;-65
2024/01/11 10:17:54;;;;;;;15.80;11.10;;;;;;;;;;5051042;28;20234;-64
2024/01/11 10:20:23;;;;;;;16.23;11.13;;;;;;;;;;5047831;28;20210;-65
2024/01/11 10:22:52;;;;;;;16.63;11.27;;;;;;;;;;5046085;28;20306;-65
2024/01/11 10:25:19;;;;;;;15.30;10.90;;;;;;;;;;5043896;28;20199;-65
2024/01/11 10:27:48;;;;;;;18.53;11.80;;;;;;;;;;5046343;28;20208;-67
2024/01/11 10:30:16;;;;;;;15.27;10.90;;;;;;;;;;5041152;28;20207;-64
2024/01/11 10:32:43;;;;;;;15.13;11.10;;;;;;;;;;5044039;28;20258;-64
2024/01/11 10:35:10;;;;;;;17.77;11.33;;;;;;;;;;5044779;28;20214;-64
2024/01/11 10:37:38;;;;;;;15.03;10.80;;;;;;;;;;5043069;28;20207;-65
2024/01/11 10:40:10;;;;;;;16.07;11.30;;;;;;;;;;5048748;28;20586;-65
2024/01/11 10:42:38;;;;;;;16.00;11.10;;;;;;;;;;5045676;28;20207;-70
2024/01/11 10:45:12;;;;;;;18.07;11.73;;;;;;;;;;5044835;28;20214;-69
2024/01/11 10:47:39;;;;;;;15.67;11.63;;;;;;;;;;5042137;28;20215;-69
2024/01/11 10:50:10;;;;;;;17.57;11.57;;;;;;;;;;5046396;28;20198;-69
2024/01/11 10:52:40;;;;;;;13.43;10.73;;;;;;;;;;5038718;28;20211;-69
2024/01/11 10:55:07;;;;;;;14.93;11.00;;;;;;;;;;5046457;28;20199;-69
2024/01/11 10:57:34;;;;;;;14.43;11.00;;;;;;;;;;5038268;28;20230;-69
2024/01/11 11:00:04;;;;;;;14.17;10.53;;;;;;;;;;5040855;28;20351;-68
2024/01/11 11:02:35;;;;;;;13.60;9.90;;;;;;;;;;5044618;28;20234;-68
2024/01/11 11:05:04;;;;;;;15.37;10.93;;;;;;;;;;5039824;28;20238;-68
2024/01/11 11:07:31;;;;;;;14.93;10.67;;;;;;;;;;5044877;28;20203;-69
2024/01/11 11:09:59;;;;;;;16.33;10.80;;;;;;;;;;5045394;28;20264;-68
2024/01/11 11:12:26;;;;;;;15.03;11.03;;;;;;;;;;5044539;28;20212;-69
2024/01/11 11:14:55;;;;;;;15.03;10.80;;;;;;;;;;5042358;28;20295;-67
2024/01/11 11:17:22;;;;;;;14.93;10.27;;;;;;;;;;5040299;28;20224;-67
2024/01/11 11:19:50;;;;;;;15.80;10.77;;;;;;;;;;5039050;28;20199;-68
2024/01/11 11:22:19;;;;;;;14.47;10.60;;;;;;;;;;5049261;28;20199;-67
2024/01/11 11:24:46;;;;;;;16.90;11.13;;;;;;;;;;5042269;28;20207;-68
2024/01/11 11:27:15;;;;;;;14.13;10.70;;;;;;;;;;5042575;28;20188;-69
2024/01/11 11:29:43;;;;;;;15.03;10.30;;;;;;;;;;5045830;28;20208;-69
2024/01/11 11:32:12;;;;;;;16.03;10.53;;;;;;;;;;5042773;28;20231;-69
2024/01/11 11:34:44;;;;;;;13.97;10.50;;;;;;;;;;5041800;28;20303;-68
2024/01/11 11:37:12;;;;;;;14.90;10.20;;;;;;;;;;5045007;28;20599;-69
2024/01/11 11:39:40;;;;;;;16.23;11.17;;;;;;;;;;5044024;28;20234;-69
2024/01/11 11:42:08;;;;;;;14.13;10.17;;;;;;;;;;5040609;28;20211;-70
2024/01/11 11:44:35;;;;;;;16.13;10.77;;;;;;;;;;5040107;28;20387;-70
2024/01/11 11:47:22;;;;;;;13.73;10.17;;;;;;;;;;5041836;28;20200;-69
2024/01/11 11:50:03;;;;;;;14.63;10.37;;;;;;;;;;5039562;28;20211;-68
2024/01/11 11:52:34;;;;;;;15.60;11.07;;;;;;;;;;5044353;28;20203;-63
2024/01/11 11:55:01;;;;;;;14.57;10.10;;;;;;;;;;5043985;28;20200;-62
2024/01/11 11:57:28;;;;;;;13.57;10.00;;;;;;;;;;5048299;28;20220;-63
2024/01/11 11:59:58;;;;;;;12.47;9.70;;;;;;;;;;5048296;28;20237;-62
2024/01/11 12:02:26;;;;;;;12.83;9.70;;;;;;;;;;5045995;28;20207;-63
2024/01/11 12:04:53;;;;;;;13.97;10.17;;;;;;;;;;5046485;28;20199;-62
2024/01/11 12:07:22;;;;;;;12.80;9.90;;;;;;;;;;5045125;28;20402;-62
2024/01/11 12:09:51;;;;;;;14.30;10.23;;;;;;;;;;5049163;28;20207;-62
2024/01/11 12:12:21;;;;;;;12.50;9.87;;;;;;;;;;5041897;28;20207;-63
2024/01/11 12:14:49;;;;;;;13.47;10.13;;;;;;;;;;5049035;28;20221;-62
2024/01/11 12:17:17;;;;;;;16.47;10.57;;;;;;;;;;5041326;28;20502;-62
2024/01/11 12:19:44;;;;;;;14.50;10.27;;;;;;;;;;5044131;28;20207;-62
2024/01/11 12:22:11;;;;;;;21.30;12.93;;;;;;;;;;5046773;28;20219;-62
2024/01/11 12:24:38;;;;;;;14.87;10.37;;;;;;;;;;5043220;28;20204;-63
2024/01/11 12:27:07;;;;;;;14.07;10.50;;;;;;;;;;5041907;28;20208;-63
2024/01/11 12:29:34;;;;;;;12.53;10.10;;;;;;;;;;5042465;28;20208;-62
2024/01/11 12:32:02;;;;;;;11.73;9.07;;;;;;;;;;5046605;28;20201;-62
2024/01/11 12:34:29;;;;;;;13.93;10.47;;;;;;;;;;5043007;28;20211;-62
2024/01/11 12:37:00;;;;;;;14.63;10.43;;;;;;;;;;5041927;28;20219;-63
2024/01/11 12:39:27;;;;;;;14.40;10.07;;;;;;;;;;5040955;28;20242;-63
2024/01/11 12:41:57;;;;;;;14.73;10.50;;;;;;;;;;5038772;28;20207;-63
2024/01/11 12:44:25;;;;;;;14.20;9.93;;;;;;;;;;5041879;28;20210;-62
2024/01/11 12:46:53;;;;;;;18.03;12.77;;;;;;;;;;5034413;28;20379;-63
2024/01/11 12:49:20;;;;;;;13.67;9.60;;;;;;;;;;5038692;28;20234;-62
2024/01/11 12:51:48;;;;;;;12.90;9.40;;;;;;;;;;5038483;28;20211;-62
2024/01/11 12:54:19;;;;;;;14.43;10.20;;;;;;;;;;5041742;28;20206;-64
2024/01/11 12:56:46;;;;;;;11.27;9.10;;;;;;;;;;5034705;28;20224;-63
2024/01/11 12:59:16;;;;;;;13.33;10.70;;;;;;;;;;5041215;28;20411;-63
2024/01/11 13:01:44;;;;;;;13.60;10.17;;;;;;;;;;5039177;28;20217;-66
2024/01/11 13:04:11;;;;;;;12.43;9.47;;;;;;;;;;5037093;28;20204;-66
2024/01/11 13:06:38;;;;;;;15.07;10.57;;;;;;;;;;5047026;28;20200;-66
2024/01/11 13:09:08;;;;;;;16.10;10.53;;;;;;;;;;5038851;28;20211;-66
2024/01/11 13:11:35;;;;;;;12.40;9.43;;;;;;;;;;5041379;28;20208;-67
2024/01/11 13:14:06;;;;;;;12.60;9.07;;;;;;;;;;5043305;28;20206;-66
2024/01/11 13:16:33;;;;;;;13.10;9.50;;;;;;;;;;5039724;28;20259;-66
2024/01/11 13:19:02;;;;;;;13.53;9.40;;;;;;;;;;5047996;28;20230;-68
2024/01/11 13:21:29;;;;;;;13.00;8.87;;;;;;;;;;5035879;28;20436;-66
2024/01/11 13:23:56;;;;;;;12.80;9.20;;;;;;;;;;5045123;28;20207;-67
2024/01/11 13:26:24;;;;;;;12.23;9.07;;;;;;;;;;5040550;28;20230;-67
2024/01/11 13:28:52;;;;;;;11.93;8.70;;;;;;;;;;5049390;28;20200;-66
2024/01/11 13:31:20;;;;;;;11.97;8.70;;;;;;;;;;5041314;28;20203;-67
2024/01/11 13:33:48;;;;;;;14.07;9.43;;;;;;;;;;5039708;28;20215;-66
2024/01/11 13:36:17;;;;;;;9.63;7.13;;;;;;;;;;5041307;28;20207;-67
2024/01/11 13:38:44;;;;;;;10.83;8.10;;;;;;;;;;5039331;28;20558;-67
2024/01/11 13:41:11;;;;;;;11.30;7.90;;;;;;;;;;5042170;28;20219;-66
2024/01/11 13:43:38;;;;;;;12.33;8.50;;;;;;;;;;5035676;28;20218;-67
2024/01/11 13:46:06;;;;;;;12.77;8.27;;;;;;;;;;5038981;28;20322;-67
2024/01/11 13:48:33;;;;;;;10.90;7.47;;;;;;;;;;5039842;28;20214;-67
2024/01/11 13:51:02;;;;;;;13.60;8.37;;;;;;;;;;5042284;28;20206;-67
2024/01/11 13:53:31;;;;;;;19.03;9.77;;;;;;;;;;5038736;28;20253;-67
2024/01/11 13:55:58;;;;;;;15.57;9.40;;;;;;;;;;5040856;28;20208;-66
2024/01/11 13:58:25;;;;;;;12.07;8.53;;;;;;;;;;5041352;28;20220;-67
2024/01/11 14:00:52;;;;;;;11.70;8.37;;;;;;;;;;5043572;28;20205;-67
2024/01/11 14:03:20;;;;;;;9.70;7.53;;;;;;;;;;5047186;28;20210;-68
2024/01/11 14:05:47;;;;;;;11.57;8.37;;;;;;;;;;5046628;28;20200;-66
2024/01/11 14:08:14;;;;;;;10.13;7.43;;;;;;;;;;5039938;28;20310;-67
2024/01/11 14:10:43;;;;;;;9.10;7.03;;;;;;;;;;5043710;28;20203;-67
2024/01/11 14:13:10;;;;;;;9.77;7.80;;;;;;;;;;5043178;28;20280;-66
2024/01/11 14:15:37;;;;;;;11.27;8.00;;;;;;;;;;5042379;28;20211;-67
2024/01/11 14:18:05;;;;;;;13.33;8.97;;;;;;;;;;5039556;28;20219;-67
2024/01/11 14:20:34;;;;;;;13.70;8.77;;;;;;;;;;5040857;28;20196;-66